Time;durP1;ratioP1;P1;durP2;ratioP2;P2;SDS_P1;SDS_P2;PMS_P1;PMS_P2;Temp;Humidity;BMP_temperature;BMP_pressure;BME280_temperature;BME280_humidity;BME280_pressure;Samples;Min_cycle;Max_cycle;Signal;HPM_P1;HPM_P2
2022/09/23 00:00:42;;;;;;;;;15.25;14.00;;;;;16.24;46.00;101445.41;5008027;28;45421;-80
2022/09/23 00:03:09;;;;;;;;;17.00;16.00;;;;;16.18;46.23;101438.44;4997945;28;45270;-80
2022/09/23 00:05:34;;;;;;;;;13.00;13.00;;;;;16.14;46.27;101436.72;4990400;28;45277;-80
2022/09/23 00:08:00;;;;;;;;;20.25;17.50;;;;;16.17;46.16;101442.00;5002372;28;45285;-80
2022/09/23 00:10:29;;;;;;;;;19.00;17.25;;;;;16.16;46.61;101437.56;4992755;28;45317;-79
2022/09/23 00:12:56;;;;;;;;;15.25;15.25;;;;;16.13;46.36;101424.34;4998230;28;45454;-80
2022/09/23 00:15:24;;;;;;;;;17.50;16.25;;;;;16.12;46.75;101425.25;4993755;28;45351;-80
2022/09/23 00:17:50;;;;;;;;;17.75;16.00;;;;;16.09;46.56;101420.88;5002096;28;45637;-80
2022/09/23 00:20:16;;;;;;;;;17.25;16.00;;;;;16.07;46.85;101420.00;4991567;28;45497;-80
2022/09/23 00:22:42;;;;;;;;;20.00;15.50;;;;;16.05;46.79;101420.94;4997916;28;45331;-80
2022/09/23 00:25:09;;;;;;;;;19.00;17.25;;;;;16.05;46.75;101421.78;4994371;28;45430;-79
2022/09/23 00:27:35;;;;;;;;;18.00;16.25;;;;;16.07;47.10;101419.13;5002477;28;45341;-80
2022/09/23 00:30:03;;;;;;;;;16.75;14.25;;;;;16.03;46.91;101414.75;4994478;28;45308;-82
2022/09/23 00:32:29;;;;;;;;;16.00;13.25;;;;;16.00;47.03;101406.84;5002149;28;45251;-80
2022/09/23 00:34:54;;;;;;;;;15.75;14.75;;;;;15.98;47.05;101412.16;4990553;28;45814;-80
2022/09/23 00:37:19;;;;;;;;;16.25;16.25;;;;;15.94;46.78;101414.91;5002607;28;45397;-80
2022/09/23 00:39:45;;;;;;;;;15.00;14.75;;;;;15.92;46.92;101419.34;4994567;28;45395;-80
2022/09/23 00:42:20;;;;;;;;;17.00;16.00;;;;;15.87;47.31;101419.41;5002235;28;45427;-80
2022/09/23 00:44:52;;;;;;;;;17.75;16.25;;;;;15.86;47.25;101415.88;5001490;28;45455;-80
2022/09/23 00:47:28;;;;;;;;;17.50;14.75;;;;;15.83;47.70;101413.28;5001507;28;46583;-80
2022/09/23 00:50:08;;;;;;;;;17.25;15.50;;;;;15.79;47.90;101410.69;4996905;28;45256;-80
2022/09/23 00:52:36;;;;;;;;;17.75;16.50;;;;;15.81;47.64;101411.56;4993542;28;45338;-80
2022/09/23 00:55:05;;;;;;;;;13.25;13.25;;;;;15.82;48.19;101419.50;5001667;28;45281;-80
2022/09/23 00:57:32;;;;;;;;;15.50;14.50;;;;;15.78;48.12;101404.50;5001327;28;46078;-80
2022/09/23 00:59:58;;;;;;;;;18.00;16.00;;;;;15.79;48.18;101408.91;4988830;28;45582;-80
2022/09/23 01:02:24;;;;;;;;;19.50;17.00;;;;;15.76;48.54;101402.78;4992645;28;45325;-80
2022/09/23 01:04:50;;;;;;;;;15.50;14.50;;;;;15.76;48.57;101406.28;5004609;28;45449;-80
2022/09/23 01:07:16;;;;;;;;;16.50;14.00;;;;;15.78;48.67;101412.47;5000265;28;47099;-80
2022/09/23 01:09:44;;;;;;;;;13.50;12.00;;;;;15.76;48.45;101400.13;5001664;28;45393;-80
2022/09/23 01:12:25;;;;;;;;;13.50;13.50;;;;;15.78;48.17;101400.97;4992869;28;45235;-80
2022/09/23 01:15:28;;;;;;;;;16.75;15.75;;;;;15.79;48.46;101405.38;4976310;28;45318;-80
2022/09/23 01:18:12;;;;;;;;;14.75;12.75;;;;;15.75;48.35;101399.25;4983789;28;45435;-80
2022/09/23 01:21:33;;;;;;;;;17.00;13.50;;;;;15.73;48.58;101389.53;4995813;28;45862;-80
2022/09/23 01:24:36;;;;;;;;;15.25;13.25;;;;;15.67;48.47;101382.53;4900725;28;45586;-80
2022/09/23 01:27:34;;;;;;;;;11.50;10.50;;;;;15.65;48.58;101381.66;4918359;28;45390;-80
2022/09/23 01:30:08;;;;;;;;;16.50;15.50;;;;;15.61;48.70;101372.88;4985017;28;47276;-80
2022/09/23 01:32:49;;;;;;;;;19.00;17.50;;;;;15.55;48.92;101364.97;4973678;28;45381;-79
2022/09/23 01:35:30;;;;;;;;;20.00;17.75;;;;;15.59;49.00;101373.78;5001106;28;45286;-80
2022/09/23 01:38:11;;;;;;;;;18.50;17.25;;;;;15.57;48.81;101373.81;4991951;28;45509;-80
2022/09/23 01:40:55;;;;;;;;;15.25;14.25;;;;;15.53;49.08;101380.06;4988648;28;45602;-80
2022/09/23 01:43:55;;;;;;;;;18.75;15.75;;;;;15.44;49.62;101372.22;4986438;28;45441;-80
2022/09/23 01:46:26;;;;;;;;;19.25;17.75;;;;;15.43;49.38;101371.34;4999952;28;45253;-81
2022/09/23 01:49:06;;;;;;;;;19.25;18.50;;;;;15.50;49.58;101387.16;5001077;28;45357;-81
2022/09/23 01:51:37;;;;;;;;;32.25;28.50;;;;;15.54;49.81;101391.56;5000587;28;45312;-80
2022/09/23 01:54:15;;;;;;;;;26.75;23.75;;;;;15.50;49.45;101379.22;5001018;28;45301;-80
2022/09/23 01:57:01;;;;;;;;;31.50;27.00;;;;;15.54;49.52;101383.59;5000849;28;45247;-81
2022/09/23 01:59:36;;;;;;;;;23.00;22.00;;;;;15.55;49.54;101382.69;4992105;28;45491;-80
2022/09/23 02:02:27;;;;;;;;;25.00;22.25;;;;;15.51;49.93;101387.16;4988650;28;48074;-81
2022/09/23 02:05:10;;;;;;;;;18.50;16.50;;;;;15.54;49.83;101378.28;5004139;28;45314;-80
2022/09/23 02:07:47;;;;;;;;;22.50;19.75;;;;;15.50;49.70;101374.78;4999509;28;45404;-80
2022/09/23 02:10:18;;;;;;;;;20.25;19.75;;;;;15.53;50.13;101380.06;4993285;28;45455;-80
2022/09/23 02:12:48;;;;;;;;;21.00;18.00;;;;;15.53;49.99;101372.09;5000606;28;46560;-80
2022/09/23 02:15:18;;;;;;;;;20.50;17.00;;;;;15.53;49.82;101379.16;4990239;28;45274;-80
2022/09/23 02:17:51;;;;;;;;;20.50;19.50;;;;;15.51;50.08;101376.56;5000327;28;45257;-80
2022/09/23 02:20:22;;;;;;;;;20.75;20.50;;;;;15.51;49.98;101371.25;4999160;28;45248;-80
2022/09/23 02:22:53;;;;;;;;;16.00;14.50;;;;;15.52;49.56;101375.63;4987548;28;45849;-80
2022/09/23 02:25:24;;;;;;;;;15.00;13.75;;;;;15.46;49.92;101378.38;4982845;28;45567;-80
2022/09/23 02:28:04;;;;;;;;;14.50;13.75;;;;;15.50;49.98;101372.13;5000931;28;45299;-81
2022/09/23 02:30:37;;;;;;;;;12.25;12.25;;;;;15.51;49.79;101373.03;4985539;28;45426;-81
2022/09/23 02:33:14;;;;;;;;;16.75;16.00;;;;;15.50;49.84;101357.97;4995712;28;47068;-80
2022/09/23 02:36:05;;;;;;;;;17.25;16.00;;;;;15.49;50.28;101361.53;5000234;28;45430;-80
2022/09/23 02:38:40;;;;;;;;;17.00;16.25;;;;;15.50;50.37;101364.16;5000441;28;45358;-80
2022/09/23 02:41:10;;;;;;;;;15.25;15.25;;;;;15.49;50.05;101365.06;5000336;28;45378;-81
2022/09/23 02:44:02;;;;;;;;;17.00;15.75;;;;;15.51;49.89;101363.28;4999649;28;46430;-81
2022/09/23 02:46:31;;;;;;;;;18.00;18.00;;;;;15.52;49.99;101365.03;4985958;28;45852;-81
2022/09/23 02:49:09;;;;;;;;;12.75;11.00;;;;;15.45;49.96;101355.41;5000079;28;45338;-81
2022/09/23 02:51:37;;;;;;;;;18.00;16.25;;;;;15.48;50.10;101352.72;4995182;28;46345;-81
2022/09/23 02:54:06;;;;;;;;;11.25;11.25;;;;;15.46;50.34;101345.66;5000051;28;45259;-81
2022/09/23 02:56:32;;;;;;;;;15.00;14.00;;;;;15.50;50.61;101352.69;4984386;28;45279;-81
2022/09/23 02:58:58;;;;;;;;;13.75;13.75;;;;;15.44;50.56;101351.84;5008064;28;45554;-80
2022/09/23 03:01:45;;;;;;;;;16.75;15.00;;;;;15.47;50.95;101342.09;4985328;28;45560;-81
2022/09/23 03:04:24;;;;;;;;;18.00;17.00;;;;;15.49;50.56;101348.28;4995426;28;46785;-81
2022/09/23 03:07:12;;;;;;;;;15.50;13.25;;;;;15.46;50.53;101345.66;5006259;28;45451;-80
2022/09/23 03:09:37;;;;;;;;;16.00;15.00;;;;;15.43;50.38;101342.16;5003141;28;45439;-81
2022/09/23 03:12:15;;;;;;;;;12.50;12.50;;;;;15.39;50.36;101347.53;5003057;28;45188;-81
2022/09/23 03:15:19;;;;;;;;;11.50;9.75;;;;;15.36;50.32;101337.81;4990470;28;45292;-81
2022/09/23 03:17:57;;;;;;;;;17.25;17.25;;;;;15.31;50.64;101339.66;4991423;28;45313;-81
2022/09/23 03:20:34;;;;;;;;;17.50;16.25;;;;;15.28;50.73;101338.84;4994289;28;45359;-80
2022/09/23 03:23:05;;;;;;;;;15.50;14.75;;;;;15.30;50.95;101339.69;5004733;28;45482;-81
2022/09/23 03:25:35;;;;;;;;;20.50;20.50;;;;;15.31;50.81;101342.31;5003258;28;45955;-80
2022/09/23 03:28:02;;;;;;;;;19.50;17.75;;;;;15.29;50.45;101336.19;4992418;28;45655;-81
2022/09/23 03:30:30;;;;;;;;;16.75;16.50;;;;;15.28;51.17;101337.06;4988429;28;45303;-80
2022/09/23 03:32:59;;;;;;;;;18.75;18.50;;;;;15.33;51.05;101348.47;5002937;28;45399;-80
2022/09/23 03:35:29;;;;;;;;;16.00;15.75;;;;;15.26;50.74;101343.28;5002684;28;45399;-80
2022/09/23 03:38:06;;;;;;;;;20.25;18.00;;;;;15.25;50.72;101349.50;4992366;28;46089;-80
2022/09/23 03:40:42;;;;;;;;;19.50;18.75;;;;;15.27;51.07;101353.00;4990568;28;45251;-80
2022/09/23 03:43:10;;;;;;;;;19.00;18.50;;;;;15.29;51.16;101352.09;4988710;28;45557;-80
2022/09/23 03:45:35;;;;;;;;;19.75;17.50;;;;;15.31;51.12;101358.22;4994772;28;47351;-80
2022/09/23 03:48:01;;;;;;;;;20.00;17.50;;;;;15.33;51.22;101353.78;4997336;28;45602;-81
2022/09/23 03:50:27;;;;;;;;;19.50;18.50;;;;;15.35;51.60;101351.13;5002710;28;45332;-81
2022/09/23 03:52:53;;;;;;;;;19.00;19.00;;;;;15.36;51.57;101348.44;4988038;28;45765;-80
2022/09/23 03:55:19;;;;;;;;;20.00;18.50;;;;;15.33;51.89;101339.66;5002395;28;45292;-80
2022/09/23 03:57:45;;;;;;;;;18.25;16.25;;;;;15.33;52.12;101345.81;5001881;28;45247;-81
2022/09/23 04:00:12;;;;;;;;;16.75;15.25;;;;;15.37;51.76;101350.22;5006904;28;45434;-81
2022/09/23 04:02:38;;;;;;;;;18.50;16.25;;;;;15.40;51.82;101352.81;5002203;28;45273;-81
2022/09/23 04:05:04;;;;;;;;;21.50;17.25;;;;;15.34;51.89;101338.75;5005353;28;46113;-81
2022/09/23 04:07:30;;;;;;;;;18.25;17.50;;;;;15.37;51.69;101351.97;4983932;28;45337;-80
2022/09/23 04:09:55;;;;;;;;;17.00;16.00;;;;;15.37;51.78;101354.63;4988177;28;45262;-81
2022/09/23 04:12:21;;;;;;;;;24.25;23.00;;;;;15.35;51.96;101352.00;4990115;28;45728;-80
2022/09/23 04:14:47;;;;;;;;;21.25;20.50;;;;;15.36;51.97;101350.22;4996520;28;46093;-80
2022/09/23 04:17:12;;;;;;;;;5.50;3.50;;;;;15.33;51.85;101347.63;4995390;28;45903;-80
2022/09/23 04:19:38;;;;;;;;;23.75;20.50;;;;;15.36;51.57;101343.13;4989088;28;45482;-80
2022/09/23 04:22:04;;;;;;;;;23.00;21.75;;;;;15.38;51.63;101357.25;5002189;28;45217;-80
2022/09/23 04:24:30;;;;;;;;;22.00;22.00;;;;;15.39;51.66;101352.81;5001896;28;45653;-81
2022/09/23 04:26:55;;;;;;;;;21.75;21.75;;;;;15.36;51.74;101345.78;5002034;28;45262;-79
2022/09/23 04:29:22;;;;;;;;;23.50;22.50;;;;;15.39;51.64;101347.53;5002271;28;45450;-81
2022/09/23 04:31:49;;;;;;;;;22.75;21.00;;;;;15.39;52.00;101342.22;4994790;28;45954;-81
2022/09/23 04:34:16;;;;;;;;;19.75;19.75;;;;;15.36;51.69;101343.13;4995290;28;48580;-81
2022/09/23 04:36:43;;;;;;;;;20.00;20.00;;;;;15.34;51.66;101344.03;5001809;28;45390;-81
2022/09/23 04:39:09;;;;;;;;;21.50;19.25;;;;;15.31;51.47;101341.44;4990055;28;45287;-80
2022/09/23 04:41:35;;;;;;;;;17.75;17.75;;;;;15.27;51.59;101342.41;5001935;28;45289;-81
2022/09/23 04:44:00;;;;;;;;;21.50;21.00;;;;;15.24;51.70;101339.78;5000593;28;47154;-81
2022/09/23 04:46:26;;;;;;;;;21.25;20.50;;;;;15.19;52.16;101345.16;4988045;28;45354;-81
2022/09/23 04:48:51;;;;;;;;;19.50;19.50;;;;;15.13;51.81;101339.91;5002555;28;45310;-81
2022/09/23 04:51:20;;;;;;;;;19.00;18.50;;;;;15.08;52.19;101333.81;4988479;28;45397;-81
2022/09/23 04:53:48;;;;;;;;;20.00;19.00;;;;;15.07;52.23;101332.03;5001812;28;45300;-81
2022/09/23 04:56:18;;;;;;;;;23.75;18.00;;;;;15.10;52.38;101334.63;4987412;28;45303;-81
2022/09/23 04:58:47;;;;;;;;;20.00;17.00;;;;;15.06;52.08;101328.50;4999116;28;45488;-81
2022/09/23 05:01:14;;;;;;;;;19.00;19.00;;;;;15.11;52.33;101333.75;4985516;28;45520;-81
2022/09/23 05:03:41;;;;;;;;;15.75;15.50;;;;;15.07;52.56;101327.59;4994655;28;46321;-82
2022/09/23 05:06:07;;;;;;;;;18.00;16.25;;;;;15.08;52.24;101334.69;4988766;28;45429;-81
2022/09/23 05:08:34;;;;;;;;;19.00;19.00;;;;;15.07;52.22;101338.22;5001579;28;45440;-81
2022/09/23 05:11:03;;;;;;;;;22.25;21.75;;;;;15.02;52.57;101324.13;4987118;28;45508;-82
2022/09/23 05:13:30;;;;;;;;;21.75;20.00;;;;;15.02;52.60;101331.22;5001031;28;45541;-82
2022/09/23 05:16:00;;;;;;;;;19.50;18.00;;;;;15.05;52.59;101328.53;5000870;28;45255;-81
2022/09/23 05:18:27;;;;;;;;;24.00;21.75;;;;;15.04;52.92;101327.66;4990947;28;45448;-81
2022/09/23 05:20:54;;;;;;;;;24.00;21.00;;;;;15.07;52.67;101324.06;4999982;28;45306;-81
2022/09/23 05:23:20;;;;;;;;;21.75;21.25;;;;;15.07;52.47;101322.28;5000833;28;46496;-82
2022/09/23 05:25:47;;;;;;;;;22.00;22.00;;;;;15.04;52.29;101309.09;5001116;28;45248;-81
2022/09/23 05:28:18;;;;;;;;;20.75;20.25;;;;;15.06;52.27;101311.72;5001311;28;45280;-82
2022/09/23 05:30:45;;;;;;;;;26.75;24.25;;;;;15.10;52.54;101318.72;4986249;28;45444;-81
2022/09/23 05:33:11;;;;;;;;;20.00;17.50;;;;;15.11;52.63;101326.69;5000844;28;46320;-82
2022/09/23 05:35:36;;;;;;;;;22.25;19.50;;;;;15.07;52.69;101319.66;5000906;28;45283;-81
2022/09/23 05:38:02;;;;;;;;;23.00;22.25;;;;;15.12;52.93;101325.78;5001137;28;45251;-80
2022/09/23 05:40:28;;;;;;;;;23.00;22.00;;;;;15.16;52.79;101327.50;5000998;28;45623;-79
2022/09/23 05:42:53;;;;;;;;;20.25;16.75;;;;;15.15;52.72;101331.03;5000757;28;45465;-79
2022/09/23 05:45:18;;;;;;;;;22.75;21.00;;;;;15.18;52.46;101330.13;5000569;28;45440;-79
2022/09/23 05:47:44;;;;;;;;;23.25;21.00;;;;;15.17;52.54;101325.72;5000976;28;46713;-80
2022/09/23 05:50:12;;;;;;;;;20.50;17.50;;;;;15.19;52.78;101331.88;5000813;28;45440;-79
2022/09/23 05:52:37;;;;;;;;;21.75;20.75;;;;;15.18;52.86;101327.47;5000524;28;45302;-80
2022/09/23 05:55:04;;;;;;;;;18.75;17.00;;;;;15.16;52.75;101323.97;4986520;28;45563;-79
2022/09/23 05:57:29;;;;;;;;;17.50;16.25;;;;;15.19;52.93;101316.84;4989014;28;45255;-79
2022/09/23 05:59:55;;;;;;;;;25.00;20.75;;;;;15.21;52.82;101327.44;5005547;28;45531;-79
2022/09/23 06:02:20;;;;;;;;;21.50;19.50;;;;;15.25;52.97;101328.28;5000409;28;45653;-79
2022/09/23 06:04:45;;;;;;;;;23.50;22.50;;;;;15.23;53.08;101320.31;4986307;28;45983;-78
2022/09/23 06:07:11;;;;;;;;;21.75;19.50;;;;;15.24;52.91;101310.63;5001123;28;45769;-79
2022/09/23 06:09:49;;;;;;;;;27.75;21.00;;;;;15.29;52.81;101320.25;4995489;28;45238;-79
2022/09/23 06:12:15;;;;;;;;;23.75;21.00;;;;;15.27;52.66;101314.09;4982418;28;46958;-80
2022/09/23 06:15:26;;;;;;;;;;;;;;;;;;;;;
2022/09/23 06:29:32;;;;;;;;;;;;;;;;;;;;;
2022/09/23 06:39:02;;;;;;;;;22.00;20.25;;;;;15.55;52.44;101334.91;4893096;28;46459;-79
2022/09/23 06:41:54;;;;;;;;;19.25;19.00;;;;;15.54;52.00;101326.06;4914828;28;45294;-80
2022/09/23 06:44:29;;;;;;;;;25.25;22.75;;;;;15.61;51.72;101335.72;4997742;28;45527;-79
2022/09/23 06:46:58;;;;;;;;;22.25;21.25;;;;;15.62;51.93;101326.84;4984575;28;45264;-80
2022/09/23 06:49:23;;;;;;;;;24.50;21.00;;;;;15.71;51.74;101333.81;4988320;28;47932;-79
2022/09/23 06:51:51;;;;;;;;;18.25;17.50;;;;;15.77;51.54;101332.84;4999968;28;45355;-81
2022/09/23 06:54:17;;;;;;;;;26.75;24.75;;;;;15.74;51.58;101309.88;4988998;28;45526;-81
2022/09/23 06:56:46;;;;;;;;;26.75;23.00;;;;;15.86;51.52;101332.69;4997298;28;45344;-83
2022/09/23 06:59:15;;;;;;;;;23.00;22.25;;;;;15.89;51.53;101330.00;5004781;28;46264;-81
2022/09/23 07:01:41;;;;;;;;;26.00;24.75;;;;;15.94;51.53;101328.16;4984370;28;45443;-83
2022/09/23 07:04:09;;;;;;;;;30.00;26.75;;;;;15.98;51.81;101331.63;4999721;28;45401;-82
2022/09/23 07:06:35;;;;;;;;;27.50;24.25;;;;;16.03;51.69;101338.59;4982402;28;45825;-82
2022/09/23 07:09:00;;;;;;;;;29.00;25.00;;;;;16.07;51.67;101331.47;4991664;28;48180;-82
2022/09/23 07:11:25;;;;;;;;;25.00;24.00;;;;;16.15;51.39;101329.56;4985203;28;45716;-82
2022/09/23 07:13:51;;;;;;;;;30.25;25.25;;;;;16.19;51.34;101325.94;4999503;28;45412;-82
2022/09/23 07:16:17;;;;;;;;;34.00;28.25;;;;;16.27;51.46;101323.16;4999250;28;45279;-82
2022/09/23 07:18:43;;;;;;;;;31.50;27.75;;;;;16.36;51.17;101322.09;4999168;28;45409;-81
2022/09/23 07:21:15;;;;;;;;;22.75;22.50;;;;;16.41;51.15;101339.72;4999351;28;45463;-82
2022/09/23 07:23:42;;;;;;;;;26.25;23.75;;;;;16.45;51.03;101335.22;4999473;28;45167;-82
2022/09/23 07:26:07;;;;;;;;;24.25;20.75;;;;;16.47;51.01;101323.66;4986223;28;45521;-82
2022/09/23 07:28:33;;;;;;;;;26.50;26.25;;;;;16.50;50.85;101322.72;4999008;28;46417;-82
2022/09/23 07:31:05;;;;;;;;;25.00;23.00;;;;;16.56;51.23;101329.72;4999315;28;45429;-82
2022/09/23 07:33:31;;;;;;;;;33.75;27.00;;;;;16.59;50.72;101329.66;4992975;28;45495;-82
2022/09/23 07:35:57;;;;;;;;;31.00;29.75;;;;;16.65;50.74;101321.53;4987075;28;45315;-82
2022/09/23 07:38:25;;;;;;;;;25.75;24.00;;;;;16.74;50.34;101332.00;4999034;28;45963;-83
2022/09/23 07:40:51;;;;;;;;;27.75;25.25;;;;;16.80;50.61;101331.91;4991880;28;45364;-82
2022/09/23 07:43:17;;;;;;;;;30.75;29.00;;;;;16.88;50.38;101347.72;4994729;28;45267;-82
2022/09/23 07:45:42;;;;;;;;;47.25;38.00;;;;;16.95;50.40;101347.56;4990664;28;45597;-80
2022/09/23 07:48:08;;;;;;;;;27.75;23.25;;;;;17.02;49.91;101340.31;5001946;28;45689;-82
2022/09/23 07:50:33;;;;;;;;;28.25;25.75;;;;;17.13;49.60;101342.75;4994957;28;45208;-82
2022/09/23 07:53:01;;;;;;;;;27.25;26.00;;;;;17.19;49.58;101351.50;5002203;28;45222;-82
2022/09/23 07:55:27;;;;;;;;;30.00;28.25;;;;;17.29;49.39;101354.81;5002697;28;45549;-83
2022/09/23 07:57:52;;;;;;;;;31.50;26.75;;;;;17.40;49.11;101352.81;4996082;28;47578;-87
2022/09/23 08:00:18;;;;;;;;;30.75;27.00;;;;;17.46;49.19;101356.25;4991635;28;45252;-84
2022/09/23 08:02:43;;;;;;;;;29.75;26.75;;;;;17.54;48.57;101356.97;5002467;28;45457;-83
2022/09/23 08:05:08;;;;;;;;;27.75;25.25;;;;;17.61;48.62;101358.56;5005682;28;45436;-85
2022/09/23 08:07:34;;;;;;;;;31.25;29.25;;;;;17.67;48.86;101361.09;4985909;28;48558;-86
2022/09/23 08:10:00;;;;;;;;;30.25;26.75;;;;;17.79;48.71;101367.94;4997338;28;45335;-86
2022/09/23 08:12:52;;;;;;;;;28.75;26.25;;;;;17.87;49.09;101368.63;4995815;28;45456;-91
2022/09/23 08:15:17;;;;;;;;;30.00;29.25;;;;;17.91;49.10;101369.44;4980690;28;45741;-83
2022/09/23 08:17:43;;;;;;;;;31.00;28.25;;;;;17.99;49.07;101362.13;4982090;28;46503;-83
2022/09/23 08:20:42;;;;;;;;;32.75;30.00;;;;;18.05;49.00;101364.66;5001083;28;45528;-83
2022/09/23 08:22:55;;;;;;;;;30.25;28.75;;;;;18.11;48.57;101359.16;4989156;28;45328;-84
2022/09/23 08:25:24;;;;;;;;;31.50;29.75;;;;;18.19;48.73;101364.31;5000184;28;45526;-90
2022/09/23 08:27:50;;;;;;;;;34.00;30.50;;;;;18.25;48.29;101362.34;4991397;28;47417;-86
2022/09/23 08:30:15;;;;;;;;;27.00;26.00;;;;;18.32;48.42;101365.75;4985534;28;45381;-85
2022/09/23 08:32:40;;;;;;;;;30.25;29.50;;;;;18.46;48.46;101368.03;4980845;28;45281;-85
2022/09/23 08:35:06;;;;;;;;;26.50;25.25;;;;;18.56;47.29;101366.03;4989884;28;45486;-84
2022/09/23 08:37:32;;;;;;;;;27.75;25.00;;;;;18.63;47.46;101371.16;4990455;28;46825;-86
2022/09/23 08:39:57;;;;;;;;;18.75;15.75;;;;;18.70;46.88;101374.50;4984611;28;45420;-83
2022/09/23 08:42:31;;;;;;;;;21.25;19.25;;;;;18.78;46.03;101367.19;4981655;28;44750;-84
2022/09/23 08:45:01;;;;;;;;;18.00;17.00;;;;;18.85;46.01;101374.13;4988712;28;45461;-84
2022/09/23 08:47:43;;;;;;;;;17.00;16.00;;;;;18.91;45.30;101370.41;5003938;28;46499;-86
2022/09/23 08:50:25;;;;;;;;;15.00;14.50;;;;;18.98;45.09;101364.00;5011303;28;45542;-85
2022/09/23 08:53:01;;;;;;;;;17.00;16.00;;;;;19.01;44.29;101365.69;4998835;28;45425;-85
2022/09/23 08:55:36;;;;;;;;;12.75;11.25;;;;;19.03;44.32;101364.75;5000451;28;45307;-85
2022/09/23 08:58:21;;;;;;;;;14.00;13.50;;;;;19.04;43.99;101366.47;4970241;28;47003;-87
2022/09/23 09:01:21;;;;;;;;;11.50;11.00;;;;;19.09;44.10;101361.88;4986449;28;45462;-84
2022/09/23 09:03:59;;;;;;;;;10.25;10.25;;;;;19.15;43.81;101356.34;4991142;28;45392;-84
2022/09/23 09:06:42;;;;;;;;;16.00;13.50;;;;;19.24;43.77;101359.66;4989725;28;45560;-83
2022/09/23 09:09:26;;;;;;;;;14.00;14.00;;;;;19.30;43.45;101355.03;4971953;28;46899;-84
2022/09/23 09:12:02;;;;;;;;;16.00;14.25;;;;;19.43;43.41;101355.50;4994395;28;45864;-91
2022/09/23 09:14:59;;;;;;;;;15.75;14.50;;;;;19.51;42.60;101353.50;4980996;28;45248;-84
2022/09/23 09:17:38;;;;;;;;;16.00;12.00;;;;;19.59;41.82;101350.56;4971067;28;45551;-88
2022/09/23 09:20:28;;;;;;;;;9.75;9.75;;;;;19.65;41.57;101352.19;4990665;28;45512;-89
2022/09/23 09:22:59;;;;;;;;;12.75;10.50;;;;;19.74;41.76;101350.13;4971986;28;45342;-87
2022/09/23 09:25:36;;;;;;;;;15.25;14.50;;;;;19.83;41.71;101349.84;4977775;28;45335;-87
2022/09/23 09:28:17;;;;;;;;;13.75;13.25;;;;;19.95;40.86;101345.00;4986456;28;45574;-91
2022/09/23 09:30:45;;;;;;;;;14.25;13.75;;;;;20.05;40.94;101347.31;4983260;28;47850;-88
2022/09/23 09:33:17;;;;;;;;;15.50;13.25;;;;;20.15;41.22;101347.00;4983554;28;45809;-90
2022/09/23 09:36:07;;;;;;;;;15.50;13.25;;;;;20.20;40.71;101348.59;4978649;28;45381;-89
2022/09/23 09:38:34;;;;;;;;;13.50;13.50;;;;;20.27;40.41;101347.47;4995213;28;45482;-87
2022/09/23 09:41:11;;;;;;;;;13.25;13.25;;;;;20.31;40.08;101337.53;4984923;28;46874;-88
2022/09/23 09:43:39;;;;;;;;;15.25;14.00;;;;;20.36;39.92;101342.72;4992088;28;45236;-87
2022/09/23 09:46:32;;;;;;;;;11.00;10.25;;;;;20.44;39.99;101336.16;4994756;28;45471;-94
2022/09/23 09:49:07;;;;;;;;;10.25;9.25;;;;;20.48;39.63;101339.63;4966866;28;45478;-87
2022/09/23 09:51:32;;;;;;;;;11.00;10.50;;;;;20.54;39.31;101347.47;4985576;28;47409;-87
2022/09/23 09:54:22;;;;;;;;;9.50;9.50;;;;;20.57;38.84;101338.47;4985368;28;45295;-89
2022/09/23 09:56:50;;;;;;;;;9.75;9.75;;;;;20.61;39.34;101340.97;4964569;28;45339;-91
2022/09/23 09:59:23;;;;;;;;;16.00;13.00;;;;;20.63;38.98;101341.78;4989693;28;45590;-88
2022/09/23 10:02:20;;;;;;;;;14.75;12.50;;;;;20.64;38.91;101337.31;4997050;28;47452;-86
2022/09/23 10:04:54;;;;;;;;;16.00;12.00;;;;;20.67;38.96;101339.88;4977468;28;45437;-91
2022/09/23 10:07:24;;;;;;;;;9.00;9.00;;;;;20.72;38.79;101345.06;4975995;28;45282;-87
2022/09/23 10:09:51;;;;;;;;;12.50;11.50;;;;;20.75;38.79;101343.16;4970549;28;45954;-89
2022/09/23 10:12:23;;;;;;;;;8.25;8.25;;;;;20.80;38.70;101346.53;4993793;28;48459;-88
2022/09/23 10:14:51;;;;;;;;;11.00;9.25;;;;;20.81;38.57;101329.53;4971631;28;45461;-86
2022/09/23 10:17:23;;;;;;;;;12.25;9.75;;;;;20.89;38.73;101332.78;4987899;28;45346;-86
2022/09/23 10:20:01;;;;;;;;;12.75;12.75;;;;;21.00;38.75;101332.38;4986038;28;45460;-86
2022/09/23 10:22:32;;;;;;;;;8.75;7.75;;;;;21.10;38.54;101319.53;4984498;28;47771;-85
2022/09/23 10:25:08;;;;;;;;;11.00;10.75;;;;;21.18;38.36;101320.13;4990900;28;45325;-84
2022/09/23 10:27:38;;;;;;;;;10.00;8.75;;;;;21.27;38.01;101322.41;4983981;28;45499;-86
2022/09/23 10:30:24;;;;;;;;;12.25;9.50;;;;;21.41;38.00;101311.22;4985856;28;45424;-86
2022/09/23 10:32:55;;;;;;;;;14.25;12.75;;;;;21.53;37.74;101313.38;4970138;28;47375;-86
2022/09/23 10:35:23;;;;;;;;;12.50;11.75;;;;;21.65;37.69;101316.50;4978532;28;45453;-84
2022/09/23 10:37:57;;;;;;;;;10.75;10.75;;;;;21.75;37.20;101318.75;5002259;28;45378;-87
2022/09/23 10:46:46;;;;;;;;;11.75;11.25;;;;;22.09;36.57;101306.63;4993958;28;45344;-86
2022/09/23 10:49:30;;;;;;;;;10.00;9.00;;;;;22.17;36.51;101312.53;4982586;28;45636;-87
2022/09/23 10:52:15;;;;;;;;;14.50;11.25;;;;;22.23;36.06;101300.69;4978196;28;45492;-87
2022/09/23 10:55:06;;;;;;;;;12.00;11.00;;;;;22.33;35.98;101301.16;4977689;28;47536;-86
2022/09/23 10:57:44;;;;;;;;;9.75;9.75;;;;;22.41;35.75;101302.56;4995554;28;45406;-87
2022/09/23 11:00:31;;;;;;;;;9.75;9.75;;;;;22.51;35.68;101296.78;4987345;28;45421;-85
2022/09/23 11:03:26;;;;;;;;;10.00;8.25;;;;;22.58;35.00;101292.88;4980501;28;45512;-87
2022/09/23 11:06:06;;;;;;;;;7.25;7.25;;;;;22.64;34.53;101288.13;4989239;28;47932;-83
2022/09/23 11:08:50;;;;;;;;;10.50;10.50;;;;;22.71;34.88;101290.53;4972227;28;45404;-85
2022/09/23 11:11:43;;;;;;;;;11.75;11.00;;;;;22.72;34.80;101285.09;4984804;28;45380;-85
2022/09/23 11:14:40;;;;;;;;;10.00;10.00;;;;;22.68;34.85;101283.47;4979031;28;45562;-83
2022/09/23 11:17:18;;;;;;;;;12.75;9.25;;;;;22.68;34.70;101280.78;4966684;28;47357;-82
2022/09/23 11:20:03;;;;;;;;;8.25;8.25;;;;;22.71;34.68;101282.47;5003853;28;45602;-87
2022/09/23 11:23:12;;;;;;;;;10.00;9.25;;;;;22.73;34.63;101265.34;5004126;28;44778;-85
2022/09/23 11:25:49;;;;;;;;;9.25;8.75;;;;;22.79;34.62;101262.38;5005606;28;45252;-83
2022/09/23 11:28:33;;;;;;;;;9.75;9.25;;;;;22.85;34.42;101271.97;4985340;28;48151;-85
2022/09/23 11:31:18;;;;;;;;;8.50;7.50;;;;;22.97;33.86;101263.38;5001915;28;45527;-88
2022/09/23 11:34:08;;;;;;;;;10.25;8.00;;;;;23.10;33.53;101258.28;4999927;28;44995;-89
2022/09/23 11:37:07;;;;;;;;;7.50;7.50;;;;;23.26;33.29;101264.66;5005681;28;44802;-90
2022/09/23 11:39:43;;;;;;;;;9.25;8.00;;;;;23.39;33.29;101258.69;5002450;28;47486;-90
2022/09/23 11:42:20;;;;;;;;;7.50;6.75;;;;;23.47;32.93;101257.38;4996188;28;45716;-87
2022/09/23 11:44:53;;;;;;;;;13.25;9.75;;;;;23.59;33.10;101252.34;5005518;28;45388;-88
2022/09/23 11:47:33;;;;;;;;;7.00;7.00;;;;;23.67;33.02;101259.06;4986263;28;45623;-85
2022/09/23 11:50:31;;;;;;;;;10.00;8.75;;;;;23.76;32.95;101257.75;4985283;28;47082;-86
2022/09/23 11:53:38;;;;;;;;;9.00;8.25;;;;;23.83;32.48;101255.63;4957370;28;45280;-87
2022/09/23 11:56:25;;;;;;;;;7.75;6.00;;;;;23.88;32.58;101256.28;4990803;28;45886;-88
2022/09/23 11:59:17;;;;;;;;;8.25;7.50;;;;;23.93;32.76;101248.84;4984596;28;45508;-87
2022/09/23 12:01:58;;;;;;;;;10.50;9.00;;;;;23.93;31.96;101247.00;4986691;28;47303;-87
2022/09/23 12:04:41;;;;;;;;;8.00;6.50;;;;;23.97;32.03;101243.19;4988676;28;45674;-87
2022/09/23 12:07:18;;;;;;;;;8.75;8.75;;;;;24.03;31.94;101249.22;4990087;28;45530;-87